createdAt,value
2017-12-04T00:04:43.800Z,19.28
2017-12-04T00:09:43.813Z,19.31
2017-12-04T00:14:43.408Z,19.37
2017-12-04T00:19:43.635Z,19.23
2017-12-04T00:24:43.530Z,19.24
2017-12-04T00:29:43.474Z,19.25
2017-12-04T00:34:43.422Z,19.05
2017-12-04T00:39:43.356Z,18.97
2017-12-04T00:44:43.290Z,18.89
2017-12-04T00:49:43.228Z,18.87
2017-12-04T00:54:43.165Z,18.84
2017-12-04T00:59:43.126Z,18.82
2017-12-04T01:04:43.046Z,18.81
2017-12-04T01:09:42.994Z,18.74
2017-12-04T01:14:42.937Z,18.81
2017-12-04T01:19:42.865Z,18.76
2017-12-04T01:24:43.099Z,18.72
2017-12-04T01:29:42.757Z,18.68
2017-12-04T01:34:42.690Z,18.63
2017-12-04T01:39:42.617Z,18.61
2017-12-04T01:44:42.569Z,18.59
2017-12-04T01:49:42.519Z,18.65
2017-12-04T01:54:42.467Z,18.6
2017-12-04T01:59:42.483Z,18.59
2017-12-04T02:04:42.452Z,18.59
2017-12-04T02:09:42.253Z,18.54
2017-12-04T02:14:41.929Z,18.5
2017-12-04T02:19:41.925Z,18.5
2017-12-04T02:24:42.089Z,18.5
2017-12-04T02:29:42.023Z,18.44
2017-12-04T02:34:41.941Z,18.42
2017-12-04T02:39:41.627Z,18.44
2017-12-04T02:44:41.829Z,18.44
2017-12-04T02:49:41.502Z,18.39
2017-12-04T02:54:41.695Z,18.42
2017-12-04T02:59:41.628Z,18.41
2017-12-04T03:04:41.587Z,18.47
2017-12-04T03:09:41.499Z,18.39
2017-12-04T03:14:41.448Z,18.36
2017-12-04T03:19:41.374Z,18.31
2017-12-04T03:24:41.310Z,18.35
2017-12-04T03:29:41.256Z,18.31
2017-12-04T03:34:41.188Z,18.24
2017-12-04T03:39:41.180Z,18.27
2017-12-04T03:44:40.908Z,18.23
2017-12-04T03:49:41.000Z,18.23
2017-12-04T03:54:40.929Z,18.2
2017-12-04T03:59:40.873Z,18.17
2017-12-04T04:04:40.816Z,18.26
2017-12-04T04:09:40.733Z,18.24
2017-12-04T04:14:40.741Z,18.24
2017-12-04T04:19:40.601Z,18.2
2017-12-04T04:24:40.307Z,18.29
2017-12-04T04:29:40.444Z,18.23
2017-12-04T04:34:40.432Z,18.23
2017-12-04T04:39:40.324Z,18.2
2017-12-04T04:44:40.310Z,18.21
2017-12-04T04:49:40.206Z,18.17
2017-12-04T04:54:40.101Z,18.1
2017-12-04T04:59:40.035Z,18.06
2017-12-04T05:04:39.952Z,18.11
2017-12-04T05:09:39.632Z,17.98
2017-12-04T05:14:39.822Z,18.02
2017-12-04T05:19:39.834Z,17.99
2017-12-04T05:24:39.680Z,17.92
2017-12-04T05:29:39.356Z,17.96
2017-12-04T05:34:39.322Z,17.96
2017-12-04T05:39:39.469Z,17.94
2017-12-04T05:44:39.419Z,17.92
2017-12-04T05:49:39.335Z,17.88
2017-12-04T05:54:39.364Z,17.81
2017-12-04T05:59:39.198Z,17.77
2017-12-04T06:04:39.139Z,17.77
2017-12-04T06:09:39.070Z,17.81
2017-12-04T06:14:38.993Z,17.79
2017-12-04T06:19:38.923Z,17.79
2017-12-04T06:24:39.002Z,17.77
2017-12-04T06:29:38.852Z,17.76
2017-12-04T06:34:38.723Z,17.77
2017-12-04T06:39:38.651Z,17.8
2017-12-04T06:44:38.595Z,17.8
2017-12-04T06:49:38.528Z,17.95
2017-12-04T06:54:38.462Z,18.11
2017-12-04T06:59:38.490Z,18.13
2017-12-04T07:04:38.337Z,18.44
2017-12-04T07:09:38.267Z,18.54
2017-12-04T07:14:37.683Z,18.66
2017-12-04T07:19:38.145Z,18.76
2017-12-04T07:24:37.823Z,18.84
2017-12-04T07:29:38.041Z,18.87
2017-12-04T07:34:37.967Z,18.79
2017-12-04T07:39:37.901Z,18.89
2017-12-04T07:44:37.835Z,18.9
2017-12-04T07:49:37.571Z,18.84
2017-12-04T07:54:37.728Z,18.84
2017-12-04T07:59:37.659Z,18.89
2017-12-04T08:04:37.617Z,18.89
2017-12-04T08:09:37.565Z,18.89
2017-12-04T08:14:37.499Z,18.9
2017-12-04T08:19:36.901Z,19.07
2017-12-04T08:24:37.418Z,19.25
2017-12-04T08:29:37.318Z,19.24
2017-12-04T08:34:37.258Z,19.25
2017-12-04T08:39:37.253Z,19.3
2017-12-04T08:44:37.145Z,19.28
2017-12-04T08:49:36.813Z,19.27
2017-12-04T08:54:37.034Z,19.23
2017-12-04T08:59:36.696Z,19.17
2017-12-04T09:04:44.705Z,19.09
2017-12-04T09:09:36.574Z,19
2017-12-04T09:14:36.782Z,19.05
2017-12-04T09:19:36.720Z,18.91
2017-12-04T09:24:36.720Z,18.94
2017-12-04T09:29:36.704Z,18.97
2017-12-04T09:34:36.587Z,19
2017-12-04T09:39:36.472Z,18.99
2017-12-04T09:44:36.148Z,19
2017-12-04T09:49:36.357Z,19
2017-12-04T09:54:36.037Z,18.99
2017-12-04T09:59:35.977Z,19
2017-12-04T10:04:36.164Z,19.02
2017-12-04T10:09:36.120Z,18.97
2017-12-04T10:14:36.045Z,18.99
2017-12-04T10:19:35.731Z,18.93
2017-12-04T10:24:35.930Z,18.97
2017-12-04T10:29:35.863Z,18.99
2017-12-04T10:34:35.546Z,19.09
2017-12-04T10:39:35.749Z,19.02
2017-12-04T10:44:35.770Z,19.06
2017-12-04T10:49:35.630Z,19.12
2017-12-04T10:54:35.310Z,19.24
2017-12-04T10:59:35.507Z,19.2
2017-12-04T11:04:35.453Z,19.23
2017-12-04T11:09:35.407Z,19.25
2017-12-04T11:14:35.430Z,19.28
2017-12-04T11:19:35.280Z,19.35
2017-12-04T11:24:35.519Z,19.28
2017-12-04T11:29:35.433Z,19.28
2017-12-04T11:34:35.081Z,19.27
2017-12-04T11:39:35.018Z,19.24
2017-12-04T11:44:34.971Z,19.24
2017-12-04T11:49:34.907Z,19.27
2017-12-04T11:54:34.860Z,19.24
2017-12-04T11:59:34.545Z,19.24
2017-12-04T12:04:34.732Z,19.3
2017-12-04T12:09:34.681Z,19.27
2017-12-04T12:14:34.607Z,19.34
2017-12-04T12:19:34.567Z,19.38
2017-12-04T12:24:34.496Z,19.4
2017-12-04T12:29:34.195Z,19.42
2017-12-04T12:34:34.392Z,19.5
2017-12-04T12:39:34.384Z,19.47
2017-12-04T12:44:34.264Z,19.52
2017-12-04T12:49:34.206Z,19.46
2017-12-04T12:54:34.149Z,19.52
2017-12-04T12:59:34.094Z,19.64
2017-12-04T13:04:34.028Z,19.52
2017-12-04T13:09:33.970Z,19.55
2017-12-04T13:14:33.714Z,19.52
2017-12-04T13:19:34.062Z,19.46
2017-12-04T13:24:33.726Z,19.45
2017-12-04T13:29:33.746Z,19.45
2017-12-04T13:34:33.687Z,19.45
2017-12-04T13:39:33.612Z,19.43
2017-12-04T13:44:33.571Z,19.43
2017-12-04T13:49:33.590Z,19.47
2017-12-04T13:54:33.467Z,19.46
2017-12-04T13:59:33.400Z,19.42
2017-12-04T14:04:33.334Z,19.45
2017-12-04T14:09:33.411Z,19.45
2017-12-04T14:14:33.414Z,19.43
2017-12-04T14:19:33.156Z,19.46
2017-12-04T14:24:32.844Z,19.47
2017-12-04T14:29:33.054Z,19.52
2017-12-04T14:34:32.986Z,19.42
2017-12-04T14:39:32.919Z,19.37
2017-12-04T14:44:32.876Z,19.4
2017-12-04T14:49:32.564Z,19.27
2017-12-04T14:54:32.742Z,19.38
2017-12-04T14:59:32.728Z,19.35
2017-12-04T15:04:32.621Z,19.37
2017-12-04T15:09:32.549Z,19.43
2017-12-04T15:14:32.503Z,19.35
2017-12-04T15:19:32.451Z,19.45
2017-12-04T15:24:32.392Z,19.43
2017-12-04T15:29:32.339Z,19.37
2017-12-04T15:34:32.265Z,19.28
2017-12-04T15:39:32.214Z,19.34
2017-12-04T15:44:32.207Z,19.25
2017-12-04T15:49:32.115Z,19.27
2017-12-04T15:54:32.115Z,19.3
2017-12-04T15:59:31.725Z,19.35
2017-12-04T16:04:32.061Z,19.27
2017-12-04T16:09:31.609Z,19.32
2017-12-04T16:14:31.861Z,19.38
2017-12-04T16:19:31.824Z,19.25
2017-12-04T16:24:31.703Z,19.24
2017-12-04T16:29:31.744Z,19.3
2017-12-04T16:34:31.590Z,19.25
2017-12-04T16:39:31.258Z,19.25
2017-12-04T16:44:31.466Z,19.52
2017-12-04T16:49:31.407Z,19.75
2017-12-04T16:54:31.362Z,19.97
2017-12-04T16:59:31.325Z,20.07
2017-12-04T17:04:31.282Z,20.11
2017-12-04T17:09:31.204Z,19.98
2017-12-04T17:14:31.148Z,20
2017-12-04T17:19:31.076Z,19.95
2017-12-04T17:24:31.027Z,19.95
2017-12-04T17:29:30.974Z,20
2017-12-04T17:34:30.912Z,20
2017-12-04T17:39:30.980Z,20.01
2017-12-04T17:44:30.830Z,19.87
2017-12-04T17:49:30.778Z,19.83
2017-12-04T17:54:30.698Z,19.83
2017-12-04T17:59:30.149Z,19.95
2017-12-04T18:04:30.579Z,20
2017-12-04T18:09:30.540Z,20.01
2017-12-04T18:14:30.478Z,19.82
2017-12-04T18:19:30.414Z,19.83
2017-12-04T18:24:30.486Z,19.83
2017-12-04T18:29:30.312Z,19.85
2017-12-04T18:34:30.356Z,19.97
2017-12-04T18:39:30.193Z,20
2017-12-04T18:44:30.151Z,20.04
2017-12-04T18:49:30.105Z,19.98
2017-12-04T18:54:29.541Z,19.98
2017-12-04T18:59:29.984Z,19.83
2017-12-04T19:04:29.938Z,19.93
2017-12-04T19:09:29.886Z,19.85
2017-12-04T19:14:29.825Z,19.9
2017-12-04T19:19:29.774Z,19.95
2017-12-04T19:24:29.732Z,20.02
2017-12-04T19:29:29.664Z,20.11
2017-12-04T19:34:29.600Z,20.15
2017-12-04T19:39:29.288Z,20.18
2017-12-04T19:44:29.589Z,20.2
2017-12-04T19:49:29.170Z,20.12
2017-12-04T19:54:29.404Z,20.23
2017-12-04T19:59:29.315Z,20.27
2017-12-04T20:04:29.012Z,20.34
2017-12-04T20:09:29.235Z,20.34
2017-12-04T20:14:29.157Z,20.32
2017-12-04T20:19:29.125Z,20.53
2017-12-04T20:24:29.054Z,20.57
2017-12-04T20:29:29.017Z,20.66
2017-12-04T20:34:28.936Z,20.76
2017-12-04T20:39:29.885Z,20.83
2017-12-04T20:44:28.877Z,20.79
2017-12-04T20:49:28.791Z,20.78
2017-12-04T20:54:28.915Z,20.81
2017-12-04T20:59:28.445Z,20.61
2017-12-04T21:04:28.651Z,20.64
2017-12-04T21:09:28.599Z,20.67
2017-12-04T21:14:28.565Z,20.67
2017-12-04T21:19:28.481Z,20.64
2017-12-04T21:24:28.420Z,20.75
2017-12-04T21:29:28.372Z,20.94
2017-12-04T21:34:28.337Z,20.91
2017-12-04T21:39:28.025Z,20.85
2017-12-04T21:44:28.228Z,20.91
2017-12-04T21:49:28.176Z,20.83
2017-12-04T21:54:28.136Z,20.85
2017-12-04T21:59:28.092Z,20.82
2017-12-04T22:04:28.050Z,20.76
2017-12-04T22:09:27.978Z,20.71
2017-12-04T22:14:27.932Z,20.64
2017-12-04T22:19:27.879Z,20.61
2017-12-04T22:24:27.590Z,20.58
2017-12-04T22:29:27.852Z,20.44
2017-12-04T22:34:27.799Z,20.56
2017-12-04T22:39:27.430Z,20.32
2017-12-04T22:44:27.448Z,20.23
2017-12-04T22:49:27.546Z,20.19
2017-12-04T22:54:27.494Z,20.08
2017-12-04T22:59:27.496Z,20
2017-12-04T23:04:27.409Z,19.87
2017-12-04T23:09:27.343Z,19.85
2017-12-04T23:14:27.020Z,19.78
2017-12-04T23:19:27.331Z,19.82
2017-12-04T23:24:27.159Z,19.83
2017-12-04T23:29:27.107Z,19.71
2017-12-04T23:34:27.051Z,19.63
2017-12-04T23:39:26.982Z,19.6
2017-12-04T23:44:26.979Z,19.63
2017-12-04T23:49:26.615Z,19.61
2017-12-04T23:54:26.547Z,19.55
2017-12-04T23:59:26.745Z,19.57
